Mount Vernon, Ohio
Current Conditions -  °F | °C
As of 2:35 AM on Wednesday 22 Oct 2014 (Local Time) from K4I3 Reporting Station
Haze Haze  
Wind Chill: 41°   Ceiling: 600
Heat Index: 45°   Visibility: 3mi
Dew Point: 43°   Wind: 7mph
Humidity: 93%   Direction: 330°NNW
Pressure: 30.12"   Gusts: NA
Location:  40.39°N, 82.48°W
Report Text: K4I3 220635Z AUTO 33006KT 3SM BR OVC006 07/06 A3012 RMK AO2
Loading
Personal Weather Stations






























Interactive Weather Map
Tropical Storm Tracking
New forecast layout! Learn more

10-Day Weather Forecast

Advertisements
Track Severe Weather on mobile